Latest Coastal Weather Observations for Cape Sorell

IDT60701

Issued at 1:52 pm EDT Saturday 20 December 2014 (issued every 10 minutes, with the page automatically refreshed every 10 minutes)

About coastal observations | Map of coastal stations | Coastal observations for TAS | Marine services | Other Formats
Station Details ID: 097000 Name: CAPE SORELL Lat: -42.20 Lon: 145.17 Height: 19.3 m
Data from the previous 72 hours. | See also: Recent months at Cape Sorell
Date/Time
EDT
Temp

°C
Wind Pressure Rain
since 9am
mm
Weather Cloud Vis
km
Sea
Height
m
Swell
Dir
 
Speed
knots
Gust
knots
hPa Trend Height
m
Period
s
Dir
20/01:30pm 16.4 SW 10 11 1015.7 - 0.6 - - - - - - -
20/01:00pm 15.5 SW 10 12 1015.5 - 0.6 - - - - - - -
20/12:30pm 15.3 SW 9 11 1015.4 - 0.6 - - - - - - -
20/12:00pm 13.1 SW 18 22 1015.3 - 0.6 Recent precip. - - - - - -
20/11:30am 13.9 SW 14 17 1015.1 - 0.6 - - - - - - -
20/11:00am 14.5 WSW 11 13 1014.8 - 0.2 - - - - - - -
20/10:30am 14.8 WSW 11 19 1014.5 - 0.0 - - - - - - -
20/10:00am 15.7 WSW 11 13 1014.4 - 0.0 - - - - - - -
20/09:30am 14.9 WSW 12 16 1014.3 - 0.0 - - - - - - -
20/09:00am 13.9 WSW 14 17 1013.9 - 3.6 - - - - - - -
20/08:30am 14.2 W 13 18 1013.7 - 3.6 - - - - - - -
20/08:00am 14.3 WSW 14 17 1013.2 - 3.6 - - - - - - -
20/07:30am 14.3 WSW 15 19 1012.8 - 3.6 - - - - - - -
20/07:00am 13.9 WSW 15 19 1012.5 - 3.6 - - - - - - -
20/06:30am 13.9 WSW 15 18 1012.3 - 3.6 - - - - - - -
20/06:00am 13.7 WSW 16 20 1012.1 - 3.6 Recent precip. - - - - - -
20/05:30am 13.6 WSW 13 17 1011.8 - 3.6 - - - - - - -
20/05:00am 13.5 W 15 21 1011.7 - 3.2 - - - - - - -
20/04:30am 13.9 W 15 19 1011.6 - 2.6 - - - - - - -
20/04:00am 13.6 WNW 17 21 1011.8 - 2.6 - - - - - - -
20/03:30am 13.7 WNW 15 19 1012.0 - 2.6 - - - - - - -
20/03:00am 13.5 WNW 17 21 1012.2 - 2.6 Rain - - - - - -
20/02:30am 13.3 WNW 16 20 1012.6 - 2.2 - - - - - - -
20/02:00am 13.3 WNW 18 23 1013.0 - 2.0 - - - - - - -
20/01:30am 13.2 NW 13 19 1013.3 - 2.0 - - - - - - -
20/01:00am 13.6 NW 11 16 1013.7 - 2.0 - - - - - - -
20/12:30am 13.1 NW 15 21 1013.9 - 1.8 - - - - - - -
20/12:00am 13.1 NNW 14 18 1014.2 - 1.2 Rain - - - - - -
 
Date/Time
EDT
Temp

°C
Wind Pressure Rain
since 9am
mm
Weather Cloud Vis
km
Sea
Height
m
Swell
Dir
 
Speed
knots
Gust
knots
hPa Trend Height
m
Period
s
Dir
19/11:30pm 12.9 NNW 13 19 1014.6 - 1.0 - - - - - - -
19/11:00pm 12.5 NNW 12 15 1014.8 - 0.6 - - - - - - -
19/10:30pm 12.3 NW 14 17 1015.3 - 0.6 - - - - - - -
19/10:00pm 12.6 NW 15 21 1015.4 - 0.2 - - - - - - -
19/09:30pm 13.0 NW 11 15 1015.3 - 0.0 - - - - - - -
19/09:00pm 13.8 NW 10 15 1015.4 - 0.0 - - - - - - -
19/08:30pm 13.5 NW 10 13 1015.4 - 0.0 - - - - - - -
19/08:00pm 13.9 WNW 15 19 1015.2 - 0.0 - - - - - - -
19/07:30pm 13.7 WNW 11 14 1015.2 - 0.0 - - - - - - -
19/07:00pm 13.9 NW 9 12 1015.0 - 0.0 - - - - - - -
19/06:30pm 14.1 WNW 9 13 1015.0 - 0.0 - - - - - - -
19/06:00pm 13.8 NNW 8 10 1015.0 - 0.0 - - - - - - -
19/05:30pm 13.6 NNW 6 9 1015.0 - 0.0 - - - - - - -
19/05:00pm 13.6 NW 8 12 1015.3 - 0.0 - - - - - - -
19/04:30pm 14.0 NW 11 15 1015.4 - 0.0 - - - - - - -
19/04:00pm 14.2 WNW 12 18 1015.2 - 0.0 - - - - - - -
19/03:30pm 15.0 WNW 10 14 1015.2 - 0.0 - - - - - - -
19/03:00pm 14.7 WNW 10 13 1015.2 - 0.0 - - - - - - -
19/02:30pm 17.1 WNW 9 11 1015.1 - 0.0 - - - - - - -
19/02:00pm 16.1 W 8 12 1015.0 - 0.0 - - - - - - -
19/01:30pm 17.5 WNW 8 10 1014.9 - 0.0 - - - - - - -
19/01:00pm 16.8 W 7 9 1015.0 - 0.0 - - - - - - -
19/12:30pm 17.1 W 6 9 1014.8 - 0.0 - - - - - - -
19/12:00pm 15.1 WSW 9 11 1014.8 - 0.0 - - - - - - -
19/11:30am 15.5 WSW 9 12 1014.7 - 0.0 - - - - - - -
19/11:00am 15.2 WSW 11 14 1014.5 - 0.0 - - - - - - -
19/10:30am 14.5 WSW 11 14 1014.3 - 0.0 - - - - - - -
19/10:00am 14.1 WSW 10 12 1014.3 - 0.0 - - - - - - -
19/09:30am 13.8 SW 11 14 1014.1 - 0.0 - - - - - - -
19/09:00am 13.4 SW 12 16 1013.8 - 5.4 - - - - - - -
19/08:30am 12.9 SW 10 14 1013.6 - 5.4 - - - - - - -
19/08:00am 12.0 SW 12 15 1013.1 - 5.4 - - - - - - -
19/07:30am 11.9 SW 12 16 1012.7 - 5.4 - - - - - - -
19/07:00am 11.7 SW 13 16 1012.1 - 5.4 - - - - - - -
19/06:30am 11.6 SW 14 17 1011.8 - 5.4 - - - - - - -
19/06:00am 11.5 SW 19 23 1011.5 - 5.4 - - - - - - -
19/05:30am 11.4 SW 17 21 1011.1 - 5.4 - - - - - - -
19/05:00am 11.2 SW 14 17 1010.7 - 5.4 - - - - - - -
19/04:30am 11.4 SW 21 25 1010.3 - 5.4 - - - - - - -
19/04:00am 11.4 SW 15 18 1010.1 - 5.4 - - - - - - -
19/03:30am 11.5 SW 18 21 1010.0 - 5.4 - - - - - - -
19/03:00am 11.6 SW 17 21 1009.8 - 5.4 - - - - - - -
19/02:30am 11.5 SW 17 19 1009.6 - 5.4 - - - - - - -
19/02:00am 11.5 SW 16 18 1009.4 - 5.4 - - - - - - -
19/01:30am 11.6 SW 16 19 1009.3 - 5.4 - - - - - - -
19/01:00am 10.9 SW 10 15 1009.2 - 5.4 - - - - - - -
19/12:30am 10.8 WSW 16 21 1009.0 - 5.2 - - - - - - -
19/12:00am 10.3 SW 20 31 1008.6 - 5.0 Rain - - - - - -
 
Date/Time
EDT
Temp

°C
Wind Pressure Rain
since 9am
mm
Weather Cloud Vis
km
Sea
Height
m
Swell
Dir
 
Speed
knots
Gust
knots
hPa Trend Height
m
Period
s
Dir
18/11:49pm 12.9 SW 16 29 1008.3 - 3.2 - - - - - - -
18/11:30pm 12.2 WSW 15 20 1008.4 - 3.2 - - - - - - -
18/11:00pm 12.8 WSW 17 20 1008.2 - 3.2 - - - - - - -
18/10:30pm 13.1 WSW 20 23 1008.0 - 3.2 - - - - - - -
18/10:00pm 13.2 WSW 17 21 1007.9 - 3.2 - - - - - - -
18/09:30pm 13.3 WSW 19 23 1007.5 - 3.2 - - - - - - -
18/09:00pm 13.3 WSW 14 18 1007.2 - 3.2 - - - - - - -
18/08:30pm 13.4 WSW 16 21 1007.0 - 3.2 - - - - - - -
18/08:00pm 13.6 WSW 16 18 1006.5 - 3.2 - - - - - - -
18/07:30pm 14.3 WSW 19 21 1006.0 - 3.2 - - - - - - -
18/07:00pm 14.4 WSW 19 22 1005.4 - 3.2 - - - - - - -
18/06:30pm 14.6 WSW 20 24 1004.7 - 3.2 - - - - - - -
18/06:00pm 14.8 WSW 18 22 1004.3 - 3.2 - - - - - - -
18/05:30pm 15.4 WSW 16 21 1003.9 - 3.2 - - - - - - -
18/05:00pm 14.8 WSW 16 21 1003.4 - 3.2 - - - - - - -
18/04:30pm 14.2 WNW 16 21 1003.0 - 3.2 - - - - - - -
18/04:00pm 15.3 WNW 18 23 1002.9 - 3.2 - - - - - - -
18/03:30pm 13.9 NW 16 20 1002.6 - 3.2 - - - - - - -
18/03:00pm 12.7 NW 14 20 1002.4 - 3.2 Rain - - - - - -
18/02:30pm 13.6 NW 17 22 1002.2 - 2.0 - - - - - - -
18/02:00pm 13.2 NNW 20 28 1002.1 - 2.0 - - - - - - -
18/01:30pm 12.4 NNW 19 26 1001.9 - 2.0 - - - - - - -
18/01:19pm 12.4 NNW 16 28 1001.9 - 2.0 - - - - - - -
18/01:00pm 12.3 NNW 13 18 1001.7 - 2.0 - - - - - - -
18/12:33pm 12.2 NW 24 35 1001.9 - 1.0 - - - - - - -
18/12:30pm 12.5 NNW 26 36 1001.7 - 0.6 - - - - - - -
18/12:00pm 14.9 NNW 29 37 1000.3 - 0.0 - - - - - - -
18/11:47am 14.9 NNW 26 37 1000.2 - 0.0 - - - - - - -
18/11:30am 15.4 NNW 24 32 1000.4 - 0.0 - - - - - - -
18/11:00am 15.8 N 23 27 1000.5 - 0.0 - - - - - - -
18/10:30am 15.7 N 26 31 1000.4 - 0.0 - - - - - - -
18/10:00am 15.6 N 27 33 1000.7 - 0.0 - - - - - - -
18/09:30am 14.7 N 27 34 1001.1 - 0.0 - - - - - - -
18/09:00am 15.1 N 29 35 1001.1 - 0.2 - - - - - - -
18/08:30am 14.8 N 25 32 1001.4 - 0.2 - - - - - - -
18/08:00am 14.1 N 22 26 1001.7 - 0.2 - - - - - - -
18/07:30am 14.1 N 23 26 1001.7 - 0.2 - - - - - - -
18/07:00am 13.8 N 21 24 1001.8 - 0.2 - - - - - - -
18/06:30am 13.4 NNE 19 22 1001.9 - 0.2 - - - - - - -
18/06:00am 13.5 N 20 23 1001.9 - 0.2 - - - - - - -
18/05:30am 13.4 N 23 26 1001.9 - 0.2 - - - - - - -
18/05:00am 13.3 NNE 22 26 1002.1 - 0.2 - - - - - - -
18/04:30am 13.6 N 22 26 1002.0 - 0.2 - - - - - - -
18/04:00am 13.5 N 21 25 1002.3 - 0.2 - - - - - - -
18/03:30am 13.6 N 21 26 1002.7 - 0.2 - - - - - - -
18/03:00am 13.2 NNE 18 21 1003.0 - 0.2 - - - - - - -
18/02:30am 13.5 NNE 17 22 1003.2 - 0.2 - - - - - - -
18/02:00am 13.7 N 19 24 1003.6 - 0.2 - - - - - - -
18/01:30am 13.2 N 20 24 1004.1 - 0.2 - - - - - - -
18/01:00am 13.4 N 20 24 1004.2 - 0.2 - - - - - - -
18/12:30am 13.5 N 17 20 1004.4 - 0.2 - - - - - - -
18/12:00am 13.6 NNE 18 23 1004.6 - 0.2 - - - - - - -
 
Date/Time
EDT
Temp

°C
Wind Pressure Rain
since 9am
mm
Weather Cloud Vis
km
Sea
Height
m
Swell
Dir
 
Speed
knots
Gust
knots
hPa Trend Height
m
Period
s
Dir
17/11:30pm 13.6 N 20 24 1005.0 - 0.2 - - - - - - -
17/11:00pm 13.7 N 20 25 1005.3 - 0.2 - - - - - - -
17/10:30pm 13.9 N 17 21 1005.8 - 0.2 - - - - - - -
17/10:00pm 13.7 NNW 13 17 1005.9 - 0.2 - - - - - - -
17/09:30pm 13.7 NNW 13 18 1005.8 - 0.2 - - - - - - -
17/09:00pm 13.6 NNW 13 18 1005.9 - 0.2 - - - - - - -
17/08:30pm 13.7 NNW 12 16 1006.0 - 0.2 - - - - - - -
17/08:00pm 13.8 NNW 11 15 1006.1 - 0.2 - - - - - - -
17/07:30pm 13.9 NNW 11 15 1005.9 - 0.2 - - - - - - -
17/07:00pm 14.1 NNW 11 16 1005.9 - 0.2 - - - - - - -
17/06:30pm 15.3 NW 11 15 1005.9 - 0.2 - - - - - - -
17/06:00pm 14.7 NW 10 13 1005.9 - 0.2 - - - - - - -
17/05:30pm 16.0 NW 10 15 1006.0 - 0.2 - - - - - - -
17/05:00pm 16.1 NW 11 16 1006.0 - 0.2 - - - - - - -
17/04:30pm 15.2 NW 5 9 1006.1 - 0.2 - - - - - - -
17/04:00pm 11.9 W 18 26 1006.2 - 0.2 - - - - - - -
17/03:52pm 13.1 WNW 15 26 1006.0 - 0.0 - - - - - - -
17/03:30pm 16.5 NW 11 15 1006.2 - 0.0 - - - - - - -
17/03:00pm 16.5 NW 10 14 1006.2 - 0.0 - - - - - - -
17/02:30pm 16.3 NW 10 13 1006.0 - 0.0 - - - - - - -
17/02:00pm 17.0 WNW 11 16 1006.1 - 0.0 - - - - - - -

Other Formats:

Comma delimited format used in spreadsheet applications
http://www.bom.gov.au/fwo/IDT60701/IDT60701.94974.axf

JavaScript Object Notation format (JSON) in row-major order
http://www.bom.gov.au/fwo/IDT60701/IDT60701.94974.json